sensor_id;sensor_type;location;lat;lon;timestamp;pressure;altitude;pressure_sealevel;temperature;humidity
70684;BME280;58263;48.146;11.440;2023-07-08T00:02:10;95889.34;;;18.67;52.54
70684;BME280;58263;48.146;11.440;2023-07-08T00:04:36;95899.16;;;18.63;53.21
70684;BME280;58263;48.146;11.440;2023-07-08T00:07:02;95893.78;;;18.42;54.04
70684;BME280;58263;48.146;11.440;2023-07-08T00:09:27;95889.88;;;18.64;52.11
70684;BME280;58263;48.146;11.440;2023-07-08T00:11:53;95891.00;;;18.57;52.17
70684;BME280;58263;48.146;11.440;2023-07-08T00:14:18;95883.72;;;18.53;53.31
70684;BME280;58263;48.146;11.440;2023-07-08T00:16:43;95885.38;;;18.44;52.97
70684;BME280;58263;48.146;11.440;2023-07-08T00:19:09;95886.72;;;18.46;53.28
70684;BME280;58263;48.146;11.440;2023-07-08T00:21:35;95878.31;;;18.42;54.09
70684;BME280;58263;48.146;11.440;2023-07-08T00:24:01;95879.38;;;18.47;54.11
70684;BME280;58263;48.146;11.440;2023-07-08T00:26:28;95878.28;;;18.48;53.93
70684;BME280;58263;48.146;11.440;2023-07-08T00:28:55;95877.47;;;18.47;54.17
70684;BME280;58263;48.146;11.440;2023-07-08T00:31:21;95875.84;;;18.46;54.45
70684;BME280;58263;48.146;11.440;2023-07-08T00:33:49;95877.75;;;18.46;54.37
70684;BME280;58263;48.146;11.440;2023-07-08T00:36:16;95879.09;;;18.43;54.32
70684;BME280;58263;48.146;11.440;2023-07-08T00:38:42;95874.81;;;18.21;54.54
70684;BME280;58263;48.146;11.440;2023-07-08T00:41:16;95882.47;;;18.09;55.36
70684;BME280;58263;48.146;11.440;2023-07-08T00:43:50;95884.09;;;18.05;55.46
70684;BME280;58263;48.146;11.440;2023-07-08T00:49:17;95882.69;;;18.28;55.10
70684;BME280;58263;48.146;11.440;2023-07-08T00:51:46;95883.22;;;18.30;55.25
70684;BME280;58263;48.146;11.440;2023-07-08T00:54:12;95882.72;;;18.23;55.02
70684;BME280;58263;48.146;11.440;2023-07-08T00:56:49;95883.56;;;18.08;55.50
70684;BME280;58263;48.146;11.440;2023-07-08T00:59:21;95872.66;;;18.18;56.37
70684;BME280;58263;48.146;11.440;2023-07-08T01:01:48;95873.22;;;18.15;56.10
70684;BME280;58263;48.146;11.440;2023-07-08T01:04:28;95874.28;;;18.24;55.97
70684;BME280;58263;48.146;11.440;2023-07-08T01:06:57;95880.00;;;18.23;55.94
70684;BME280;58263;48.146;11.440;2023-07-08T01:09:27;95875.66;;;18.27;55.81
70684;BME280;58263;48.146;11.440;2023-07-08T01:11:54;95873.22;;;18.26;55.81
70684;BME280;58263;48.146;11.440;2023-07-08T01:14:23;95873.22;;;18.20;55.80
70684;BME280;58263;48.146;11.440;2023-07-08T01:16:51;95875.16;;;18.10;56.14
70684;BME280;58263;48.146;11.440;2023-07-08T01:19:19;95873.78;;;18.02;55.75
70684;BME280;58263;48.146;11.440;2023-07-08T01:24:18;95882.47;;;18.09;56.22
70684;BME280;58263;48.146;11.440;2023-07-08T01:26:44;95886.53;;;18.12;57.07
70684;BME280;58263;48.146;11.440;2023-07-08T01:29:11;95883.56;;;18.08;57.22
70684;BME280;58263;48.146;11.440;2023-07-08T01:31:37;95887.63;;;18.11;57.43
70684;BME280;58263;48.146;11.440;2023-07-08T01:34:03;95889.53;;;18.05;56.87
70684;BME280;58263;48.146;11.440;2023-07-08T01:36:31;95890.09;;;18.02;57.69
70684;BME280;58263;48.146;11.440;2023-07-08T01:38:59;95881.38;;;18.05;57.22
70684;BME280;58263;48.146;11.440;2023-07-08T01:41:24;95883.84;;;18.01;57.38
70684;BME280;58263;48.146;11.440;2023-07-08T01:43:50;95886.56;;;18.01;57.41
70684;BME280;58263;48.146;11.440;2023-07-08T01:46:18;95882.22;;;17.80;58.01
70684;BME280;58263;48.146;11.440;2023-07-08T01:48:50;95880.03;;;17.82;58.99
70684;BME280;58263;48.146;11.440;2023-07-08T01:51:17;95874.31;;;17.88;58.65
70684;BME280;58263;48.146;11.440;2023-07-08T01:53:43;95877.31;;;17.87;58.69
70684;BME280;58263;48.146;11.440;2023-07-08T01:56:12;95880.31;;;17.90;58.37
70684;BME280;58263;48.146;11.440;2023-07-08T01:58:39;95870.00;;;17.87;58.69
70684;BME280;58263;48.146;11.440;2023-07-08T02:01:05;95874.88;;;17.90;58.97
70684;BME280;58263;48.146;11.440;2023-07-08T02:03:30;95870.53;;;17.89;59.01
70684;BME280;58263;48.146;11.440;2023-07-08T02:05:56;95872.16;;;17.90;58.72
70684;BME280;58263;48.146;11.440;2023-07-08T02:08:21;95866.75;;;17.90;58.44
70684;BME280;58263;48.146;11.440;2023-07-08T02:10:56;95871.63;;;17.94;58.49
70684;BME280;58263;48.146;11.440;2023-07-08T02:13:22;95865.69;;;17.92;58.17
70684;BME280;58263;48.146;11.440;2023-07-08T02:15:48;95866.72;;;18.01;57.93
70684;BME280;58263;48.146;11.440;2023-07-08T02:18:13;95865.41;;;17.93;58.66
70684;BME280;58263;48.146;11.440;2023-07-08T02:20:39;95865.09;;;17.89;58.17
70684;BME280;58263;48.146;11.440;2023-07-08T02:23:04;95868.41;;;17.92;58.32
70684;BME280;58263;48.146;11.440;2023-07-08T02:25:30;95861.88;;;17.93;57.39
70684;BME280;58263;48.146;11.440;2023-07-08T02:27:55;95859.69;;;17.89;57.46
70684;BME280;58263;48.146;11.440;2023-07-08T02:30:23;95854.25;;;17.79;56.67
70684;BME280;58263;48.146;11.440;2023-07-08T02:32:48;95851.53;;;17.84;55.88
70684;BME280;58263;48.146;11.440;2023-07-08T02:35:21;95853.44;;;17.84;55.72
70684;BME280;58263;48.146;11.440;2023-07-08T02:37:46;95851.28;;;17.81;55.99
70684;BME280;58263;48.146;11.440;2023-07-08T02:40:12;95845.31;;;17.84;55.85
70684;BME280;58263;48.146;11.440;2023-07-08T02:42:39;95850.22;;;17.66;56.53
70684;BME280;58263;48.146;11.440;2023-07-08T02:45:05;95853.19;;;17.75;56.51
70684;BME280;58263;48.146;11.440;2023-07-08T02:47:30;95859.16;;;17.72;56.29
70684;BME280;58263;48.146;11.440;2023-07-08T02:49:56;95856.72;;;17.70;56.11
70684;BME280;58263;48.146;11.440;2023-07-08T02:52:21;95865.66;;;17.86;55.84
70684;BME280;58263;48.146;11.440;2023-07-08T02:54:46;95861.31;;;18.01;55.48
70684;BME280;58263;48.146;11.440;2023-07-08T02:57:11;95870.56;;;17.95;56.38
70684;BME280;58263;48.146;11.440;2023-07-08T02:59:37;95865.13;;;17.95;55.57
70684;BME280;58263;48.146;11.440;2023-07-08T03:02:02;95853.44;;;17.89;56.47
70684;BME280;58263;48.146;11.440;2023-07-08T03:04:29;95853.72;;;17.98;55.52
70684;BME280;58263;48.146;11.440;2023-07-08T03:06:55;95857.28;;;17.93;55.29
70684;BME280;58263;48.146;11.440;2023-07-08T03:09:20;95859.41;;;17.86;55.92
70684;BME280;58263;48.146;11.440;2023-07-08T03:11:46;95856.44;;;17.72;56.33
70684;BME280;58263;48.146;11.440;2023-07-08T03:14:11;95860.00;;;17.72;56.12
70684;BME280;58263;48.146;11.440;2023-07-08T03:16:37;95860.75;;;17.88;57.35
70684;BME280;58263;48.146;11.440;2023-07-08T03:19:02;95866.22;;;17.94;56.25
70684;BME280;58263;48.146;11.440;2023-07-08T03:21:28;95865.66;;;17.97;56.95
70684;BME280;58263;48.146;11.440;2023-07-08T03:23:53;95866.50;;;17.97;57.08
70684;BME280;58263;48.146;11.440;2023-07-08T03:26:21;95862.41;;;17.95;56.57
70684;BME280;58263;48.146;11.440;2023-07-08T03:28:47;95855.34;;;17.94;57.58
70684;BME280;58263;48.146;11.440;2023-07-08T03:31:12;95854.78;;;17.97;57.68
70684;BME280;58263;48.146;11.440;2023-07-08T03:33:38;95848.28;;;17.93;57.98
70684;BME280;58263;48.146;11.440;2023-07-08T03:36:05;95854.84;;;17.92;58.17
70684;BME280;58263;48.146;11.440;2023-07-08T03:38:35;95852.66;;;17.78;58.16
70684;BME280;58263;48.146;11.440;2023-07-08T03:41:00;95856.19;;;17.63;58.84
70684;BME280;58263;48.146;11.440;2023-07-08T03:43:26;95858.09;;;17.47;59.29
70684;BME280;58263;48.146;11.440;2023-07-08T03:45:51;95856.47;;;17.56;59.09
70684;BME280;58263;48.146;11.440;2023-07-08T03:48:16;95855.91;;;17.54;59.12
70684;BME280;58263;48.146;11.440;2023-07-08T03:50:42;95864.59;;;17.56;58.64
70684;BME280;58263;48.146;11.440;2023-07-08T03:53:08;95869.47;;;17.54;58.82
70684;BME280;58263;48.146;11.440;2023-07-08T03:55:33;95868.41;;;17.61;59.17
70684;BME280;58263;48.146;11.440;2023-07-08T03:57:59;95874.91;;;17.60;59.43
70684;BME280;58263;48.146;11.440;2023-07-08T04:00:24;95876.50;;;17.71;59.09
70684;BME280;58263;48.146;11.440;2023-07-08T04:02:49;95881.38;;;17.79;57.89
70684;BME280;58263;48.146;11.440;2023-07-08T04:05:17;95878.16;;;17.87;59.01
70684;BME280;58263;48.146;11.440;2023-07-08T04:07:42;95878.41;;;17.91;58.45
70684;BME280;58263;48.146;11.440;2023-07-08T04:10:09;95873.84;;;17.92;58.96
70684;BME280;58263;48.146;11.440;2023-07-08T04:12:35;95873.00;;;17.96;58.88
70684;BME280;58263;48.146;11.440;2023-07-08T04:15:00;95874.31;;;17.88;59.01
70684;BME280;58263;48.146;11.440;2023-07-08T04:17:26;95875.16;;;17.84;58.26
70684;BME280;58263;48.146;11.440;2023-07-08T04:19:51;95880.63;;;17.68;58.97
70684;BME280;58263;48.146;11.440;2023-07-08T04:22:16;95884.41;;;17.72;59.60
70684;BME280;58263;48.146;11.440;2023-07-08T04:24:42;95885.19;;;17.63;59.07
70684;BME280;58263;48.146;11.440;2023-07-08T04:27:13;95889.28;;;17.70;59.50
70684;BME280;58263;48.146;11.440;2023-07-08T04:29:40;95893.06;;;17.74;58.78
70684;BME280;58263;48.146;11.440;2023-07-08T04:32:05;95893.31;;;17.88;57.64
70684;BME280;58263;48.146;11.440;2023-07-08T04:34:31;95891.16;;;17.90;58.14
70684;BME280;58263;48.146;11.440;2023-07-08T04:36:56;95892.00;;;17.96;58.02
70684;BME280;58263;48.146;11.440;2023-07-08T04:39:21;95889.00;;;17.98;58.68
70684;BME280;58263;48.146;11.440;2023-07-08T04:41:47;95904.44;;;18.07;58.87
70684;BME280;58263;48.146;11.440;2023-07-08T04:44:12;95906.38;;;18.12;59.22
70684;BME280;58263;48.146;11.440;2023-07-08T04:46:57;95909.88;;;18.18;58.89
70684;BME280;58263;48.146;11.440;2023-07-08T04:49:23;95921.28;;;18.04;59.00
70684;BME280;58263;48.146;11.440;2023-07-08T04:51:50;95926.97;;;18.18;58.01
70684;BME280;58263;48.146;11.440;2023-07-08T04:54:16;95926.41;;;18.21;58.78
70684;BME280;58263;48.146;11.440;2023-07-08T04:56:44;95934.81;;;18.30;58.50
70684;BME280;58263;48.146;11.440;2023-07-08T04:59:14;95934.56;;;18.27;59.00
70684;BME280;58263;48.146;11.440;2023-07-08T05:01:40;95939.97;;;18.32;58.10
70684;BME280;58263;48.146;11.440;2023-07-08T05:04:07;95945.97;;;18.34;58.85
70684;BME280;58263;48.146;11.440;2023-07-08T05:06:33;95932.38;;;18.29;58.77
70684;BME280;58263;48.146;11.440;2023-07-08T05:09:00;95944.28;;;18.43;58.68
70684;BME280;58263;48.146;11.440;2023-07-08T05:11:26;95947.84;;;18.44;58.12
70684;BME280;58263;48.146;11.440;2023-07-08T05:13:51;95945.94;;;18.44;58.19
70684;BME280;58263;48.146;11.440;2023-07-08T05:16:17;95953.56;;;18.42;57.74
70684;BME280;58263;48.146;11.440;2023-07-08T05:18:42;95949.69;;;18.58;56.99
70684;BME280;58263;48.146;11.440;2023-07-08T05:21:09;95941.56;;;18.48;56.18
70684;BME280;58263;48.146;11.440;2023-07-08T05:23:34;95951.28;;;18.65;56.32
70684;BME280;58263;48.146;11.440;2023-07-08T05:26:02;95946.63;;;18.75;56.47
70684;BME280;58263;48.146;11.440;2023-07-08T05:28:28;95953.41;;;18.83;56.01
70684;BME280;58263;48.146;11.440;2023-07-08T05:30:54;95944.72;;;18.81;55.62
70684;BME280;58263;48.146;11.440;2023-07-08T05:33:23;95946.34;;;18.92;55.43
70684;BME280;58263;48.146;11.440;2023-07-08T05:35:50;95941.41;;;19.00;56.77
70684;BME280;58263;48.146;11.440;2023-07-08T05:38:15;95930.72;;;19.14;55.41
70684;BME280;58263;48.146;11.440;2023-07-08T05:40:40;95918.44;;;19.27;55.57
70684;BME280;58263;48.146;11.440;2023-07-08T05:43:06;95922.16;;;19.36;55.25
70684;BME280;58263;48.146;11.440;2023-07-08T05:45:31;95918.69;;;19.25;55.55
70684;BME280;58263;48.146;11.440;2023-07-08T05:47:57;95927.50;;;19.51;54.54
70684;BME280;58263;48.146;11.440;2023-07-08T05:50:22;95919.94;;;19.77;54.65
70684;BME280;58263;48.146;11.440;2023-07-08T05:52:47;95921.28;;;19.85;53.26
70684;BME280;58263;48.146;11.440;2023-07-08T05:55:13;95929.06;;;19.97;54.14
70684;BME280;58263;48.146;11.440;2023-07-08T05:57:38;95927.88;;;20.08;52.36
70684;BME280;58263;48.146;11.440;2023-07-08T06:00:04;95926.38;;;20.21;51.71
70684;BME280;58263;48.146;11.440;2023-07-08T06:02:30;95921.94;;;20.31;51.92
70684;BME280;58263;48.146;11.440;2023-07-08T06:04:55;95931.28;;;20.49;51.97
70684;BME280;58263;48.146;11.440;2023-07-08T06:07:20;95925.53;;;20.50;50.94
70684;BME280;58263;48.146;11.440;2023-07-08T06:09:46;95924.81;;;20.69;50.66
70684;BME280;58263;48.146;11.440;2023-07-08T06:12:11;95924.91;;;20.58;51.17
70684;BME280;58263;48.146;11.440;2023-07-08T06:14:37;95924.69;;;20.79;51.92
70684;BME280;58263;48.146;11.440;2023-07-08T06:17:04;95925.59;;;20.93;50.60
70684;BME280;58263;48.146;11.440;2023-07-08T06:19:29;95923.41;;;20.96;50.81
70684;BME280;58263;48.146;11.440;2023-07-08T06:21:55;95917.13;;;20.95;49.12
70684;BME280;58263;48.146;11.440;2023-07-08T06:24:20;95919.69;;;21.10;49.24
70684;BME280;58263;48.146;11.440;2023-07-08T06:26:46;95920.63;;;21.20;48.33
70684;BME280;58263;48.146;11.440;2023-07-08T06:29:11;95924.19;;;21.20;47.41
70684;BME280;58263;48.146;11.440;2023-07-08T06:31:37;95917.72;;;21.54;47.78
70684;BME280;58263;48.146;11.440;2023-07-08T06:34:02;95919.22;;;21.60;47.90
70684;BME280;58263;48.146;11.440;2023-07-08T06:36:27;95926.06;;;21.77;47.78
70684;BME280;58263;48.146;11.440;2023-07-08T06:38:53;95911.25;;;21.83;47.98
70684;BME280;58263;48.146;11.440;2023-07-08T06:41:18;95917.13;;;21.90;47.51
70684;BME280;58263;48.146;11.440;2023-07-08T06:43:43;95923.91;;;21.93;47.17
70684;BME280;58263;48.146;11.440;2023-07-08T06:46:09;95927.31;;;21.85;47.63
70684;BME280;58263;48.146;11.440;2023-07-08T06:48:34;95938.50;;;21.69;48.53
70684;BME280;58263;48.146;11.440;2023-07-08T06:51:00;95945.72;;;21.79;48.73
70684;BME280;58263;48.146;11.440;2023-07-08T06:53:25;95952.88;;;21.75;48.78
70684;BME280;58263;48.146;11.440;2023-07-08T06:55:50;95954.66;;;21.66;48.84
70684;BME280;58263;48.146;11.440;2023-07-08T06:58:16;95956.09;;;21.77;48.44
70684;BME280;58263;48.146;11.440;2023-07-08T07:00:43;95950.69;;;21.91;48.20
70684;BME280;58263;48.146;11.440;2023-07-08T07:03:09;95947.72;;;22.06;46.55
70684;BME280;58263;48.146;11.440;2023-07-08T07:05:34;95943.22;;;22.29;46.90
70684;BME280;58263;48.146;11.440;2023-07-08T07:07:59;95945.81;;;22.21;47.16
70684;BME280;58263;48.146;11.440;2023-07-08T07:10:25;95944.28;;;22.48;48.15
70684;BME280;58263;48.146;11.440;2023-07-08T07:12:50;95944.69;;;22.55;46.52
70684;BME280;58263;48.146;11.440;2023-07-08T07:15:15;95930.63;;;22.61;45.09
70684;BME280;58263;48.146;11.440;2023-07-08T07:17:41;95939.03;;;22.79;44.52
70684;BME280;58263;48.146;11.440;2023-07-08T07:20:07;95935.56;;;23.01;43.77
70684;BME280;58263;48.146;11.440;2023-07-08T07:22:32;95935.88;;;23.00;45.02
70684;BME280;58263;48.146;11.440;2023-07-08T07:24:59;95933.34;;;23.03;44.82
70684;BME280;58263;48.146;11.440;2023-07-08T07:27:25;95940.16;;;23.20;44.87
70684;BME280;58263;48.146;11.440;2023-07-08T07:29:51;95941.09;;;23.15;46.13
70684;BME280;58263;48.146;11.440;2023-07-08T07:32:18;95948.13;;;23.30;44.70
70684;BME280;58263;48.146;11.440;2023-07-08T07:34:48;95956.06;;;23.32;45.05
70684;BME280;58263;48.146;11.440;2023-07-08T07:37:14;95969.25;;;23.16;45.54
70684;BME280;58263;48.146;11.440;2023-07-08T07:39:41;95976.13;;;23.27;45.08
70684;BME280;58263;48.146;11.440;2023-07-08T07:42:07;95978.22;;;23.30;44.67
70684;BME280;58263;48.146;11.440;2023-07-08T07:44:32;95978.81;;;23.55;44.78
70684;BME280;58263;48.146;11.440;2023-07-08T07:46:58;95985.59;;;23.57;45.21
70684;BME280;58263;48.146;11.440;2023-07-08T07:49:23;95994.22;;;23.87;45.35
70684;BME280;58263;48.146;11.440;2023-07-08T07:51:48;96001.16;;;23.85;45.41
70684;BME280;58263;48.146;11.440;2023-07-08T07:54:14;96018.00;;;23.92;45.66
70684;BME280;58263;48.146;11.440;2023-07-08T07:56:39;96015.19;;;24.06;45.03
70684;BME280;58263;48.146;11.440;2023-07-08T07:59:05;96011.47;;;24.02;45.60
70684;BME280;58263;48.146;11.440;2023-07-08T08:01:30;96006.22;;;24.14;45.40
70684;BME280;58263;48.146;11.440;2023-07-08T08:03:56;96002.63;;;24.27;46.00
70684;BME280;58263;48.146;11.440;2023-07-08T08:06:21;96008.03;;;24.41;45.45
70684;BME280;58263;48.146;11.440;2023-07-08T08:08:46;96009.28;;;24.35;45.78
70684;BME280;58263;48.146;11.440;2023-07-08T08:11:14;96019.19;;;24.45;44.70
70684;BME280;58263;48.146;11.440;2023-07-08T08:13:39;96002.84;;;24.62;45.72
70684;BME280;58263;48.146;11.440;2023-07-08T08:16:04;96012.66;;;24.86;44.73
70684;BME280;58263;48.146;11.440;2023-07-08T08:18:30;96025.97;;;24.70;44.33
70684;BME280;58263;48.146;11.440;2023-07-08T08:20:55;96023.34;;;24.96;43.64
70684;BME280;58263;48.146;11.440;2023-07-08T08:23:21;96026.91;;;24.97;43.32
70684;BME280;58263;48.146;11.440;2023-07-08T08:25:46;96024.22;;;25.14;43.59
70684;BME280;58263;48.146;11.440;2023-07-08T08:28:11;96023.84;;;25.39;43.13
70684;BME280;58263;48.146;11.440;2023-07-08T08:30:37;96023.78;;;25.30;42.13
70684;BME280;58263;48.146;11.440;2023-07-08T08:33:03;96020.94;;;25.44;43.21
70684;BME280;58263;48.146;11.440;2023-07-08T08:35:28;96023.91;;;25.25;43.22
70684;BME280;58263;48.146;11.440;2023-07-08T08:37:53;96011.88;;;25.35;41.38
70684;BME280;58263;48.146;11.440;2023-07-08T08:40:19;96023.06;;;25.56;41.85
70684;BME280;58263;48.146;11.440;2023-07-08T08:42:53;96022.47;;;25.94;42.20
70684;BME280;58263;48.146;11.440;2023-07-08T08:45:22;96023.28;;;26.12;40.59
70684;BME280;58263;48.146;11.440;2023-07-08T08:47:54;96021.81;;;25.88;39.95
70684;BME280;58263;48.146;11.440;2023-07-08T08:52:57;96027.97;;;25.94;41.09
70684;BME280;58263;48.146;11.440;2023-07-08T08:55:24;96027.97;;;26.03;40.40
70684;BME280;58263;48.146;11.440;2023-07-08T08:58:37;96027.47;;;26.01;41.73
70684;BME280;58263;48.146;11.440;2023-07-08T09:03:14;96025.00;;;26.78;40.80
70684;BME280;58263;48.146;11.440;2023-07-08T09:05:42;96035.81;;;26.83;40.75
70684;BME280;58263;48.146;11.440;2023-07-08T09:08:16;96030.34;;;26.65;39.67
70684;BME280;58263;48.146;11.440;2023-07-08T09:10:53;96029.41;;;26.61;39.23
70684;BME280;58263;48.146;11.440;2023-07-08T09:13:25;96041.69;;;26.55;38.99
70684;BME280;58263;48.146;11.440;2023-07-08T09:16:01;96034.69;;;26.84;38.68
70684;BME280;58263;48.146;11.440;2023-07-08T09:18:35;96049.53;;;27.09;37.11
70684;BME280;58263;48.146;11.440;2023-07-08T09:21:13;96043.34;;;27.12;38.81
70684;BME280;58263;48.146;11.440;2023-07-08T09:23:41;96038.91;;;26.90;37.94
70684;BME280;58263;48.146;11.440;2023-07-08T09:26:15;96032.50;;;27.07;38.56
70684;BME280;58263;48.146;11.440;2023-07-08T09:28:43;96040.97;;;27.32;38.47
70684;BME280;58263;48.146;11.440;2023-07-08T09:31:16;96048.78;;;27.30;37.74
70684;BME280;58263;48.146;11.440;2023-07-08T09:33:45;96032.63;;;27.58;37.79
70684;BME280;58263;48.146;11.440;2023-07-08T09:36:18;96026.00;;;27.51;37.48
70684;BME280;58263;48.146;11.440;2023-07-08T09:38:47;96033.19;;;27.34;38.12
70684;BME280;58263;48.146;11.440;2023-07-08T09:41:14;96031.94;;;27.61;37.84
70684;BME280;58263;48.146;11.440;2023-07-08T09:43:42;96025.94;;;28.10;37.64
70684;BME280;58263;48.146;11.440;2023-07-08T09:46:11;96026.66;;;28.41;36.81
70684;BME280;58263;48.146;11.440;2023-07-08T09:48:37;96026.19;;;28.39;37.03
70684;BME280;58263;48.146;11.440;2023-07-08T09:51:03;96023.31;;;28.69;35.92
70684;BME280;58263;48.146;11.440;2023-07-08T09:53:29;96028.78;;;29.02;35.47
70684;BME280;58263;48.146;11.440;2023-07-08T09:55:59;96032.16;;;29.32;35.53
70684;BME280;58263;48.146;11.440;2023-07-08T09:58:32;96027.31;;;29.54;35.40
70684;BME280;58263;48.146;11.440;2023-07-08T10:01:00;96026.84;;;29.77;33.77
70684;BME280;58263;48.146;11.440;2023-07-08T10:03:28;96027.16;;;30.00;34.07
70684;BME280;58263;48.146;11.440;2023-07-08T10:05:57;96033.38;;;30.38;34.36
70684;BME280;58263;48.146;11.440;2023-07-08T10:08:29;96035.38;;;30.65;33.30
70684;BME280;58263;48.146;11.440;2023-07-08T10:11:29;96034.88;;;30.92;32.35
70684;BME280;58263;48.146;11.440;2023-07-08T10:13:59;96032.06;;;31.20;31.52
70684;BME280;58263;48.146;11.440;2023-07-08T10:16:31;96035.09;;;31.31;32.43
70684;BME280;58263;48.146;11.440;2023-07-08T10:18:58;96032.84;;;31.37;31.10
70684;BME280;58263;48.146;11.440;2023-07-08T10:24:33;96037.06;;;31.62;30.19
70684;BME280;58263;48.146;11.440;2023-07-08T10:27:12;96039.91;;;32.01;29.96
70684;BME280;58263;48.146;11.440;2023-07-08T10:30:00;96042.28;;;32.19;28.64
70684;BME280;58263;48.146;11.440;2023-07-08T10:32:30;96040.53;;;32.30;28.66
70684;BME280;58263;48.146;11.440;2023-07-08T10:35:24;96037.72;;;32.11;29.13
70684;BME280;58263;48.146;11.440;2023-07-08T10:40:53;96031.53;;;32.57;28.42
70684;BME280;58263;48.146;11.440;2023-07-08T10:43:33;96031.16;;;33.70;26.77
70684;BME280;58263;48.146;11.440;2023-07-08T10:46:33;96036.34;;;34.29;26.92
70684;BME280;58263;48.146;11.440;2023-07-08T10:51:58;96030.78;;;34.29;28.00
70684;BME280;58263;48.146;11.440;2023-07-08T11:00:02;96018.09;;;34.66;27.14
70684;BME280;58263;48.146;11.440;2023-07-08T11:05:42;96021.97;;;34.58;24.68
70684;BME280;58263;48.146;11.440;2023-07-08T11:10:52;96024.41;;;34.97;26.33
70684;BME280;58263;48.146;11.440;2023-07-08T11:13:23;96024.00;;;34.95;25.54
70684;BME280;58263;48.146;11.440;2023-07-08T11:18:43;96022.78;;;34.58;27.43
70684;BME280;58263;48.146;11.440;2023-07-08T11:21:16;96016.09;;;35.49;26.80
70684;BME280;58263;48.146;11.440;2023-07-08T11:23:51;96018.22;;;35.63;25.93
70684;BME280;58263;48.146;11.440;2023-07-08T11:26:33;96020.03;;;35.41;24.43
70684;BME280;58263;48.146;11.440;2023-07-08T11:29:04;96013.16;;;34.52;25.48
70684;BME280;58263;48.146;11.440;2023-07-08T11:31:34;96012.06;;;35.39;24.83
70684;BME280;58263;48.146;11.440;2023-07-08T11:34:01;96017.13;;;35.26;24.97
70684;BME280;58263;48.146;11.440;2023-07-08T11:36:28;96015.72;;;35.47;25.50
70684;BME280;58263;48.146;11.440;2023-07-08T11:38:56;96012.19;;;35.57;25.95
70684;BME280;58263;48.146;11.440;2023-07-08T11:41:25;96007.25;;;35.95;25.28
70684;BME280;58263;48.146;11.440;2023-07-08T11:43:57;96006.16;;;36.11;24.41
70684;BME280;58263;48.146;11.440;2023-07-08T11:46:25;96002.72;;;36.43;23.91
70684;BME280;58263;48.146;11.440;2023-07-08T11:48:55;96000.22;;;36.23;24.49
70684;BME280;58263;48.146;11.440;2023-07-08T11:51:29;95991.16;;;36.48;23.82
70684;BME280;58263;48.146;11.440;2023-07-08T11:54:02;96000.78;;;36.61;23.76
70684;BME280;58263;48.146;11.440;2023-07-08T11:56:58;96000.72;;;36.40;23.27
70684;BME280;58263;48.146;11.440;2023-07-08T11:59:26;95995.66;;;35.86;24.63
70684;BME280;58263;48.146;11.440;2023-07-08T12:02:01;95993.94;;;36.41;23.71
70684;BME280;58263;48.146;11.440;2023-07-08T12:04:32;95991.03;;;36.26;23.97
70684;BME280;58263;48.146;11.440;2023-07-08T12:07:06;95990.34;;;36.47;23.92
70684;BME280;58263;48.146;11.440;2023-07-08T12:09:44;95985.22;;;36.64;23.78
70684;BME280;58263;48.146;11.440;2023-07-08T12:12:38;95999.56;;;36.62;23.51
70684;BME280;58263;48.146;11.440;2023-07-08T12:15:17;95990.88;;;36.96;22.80
70684;BME280;58263;48.146;11.440;2023-07-08T12:17:46;95990.34;;;36.44;23.39
70684;BME280;58263;48.146;11.440;2023-07-08T12:20:31;95978.91;;;37.14;23.57
70684;BME280;58263;48.146;11.440;2023-07-08T12:22:57;95991.28;;;37.24;23.38
70684;BME280;58263;48.146;11.440;2023-07-08T12:25:33;95988.09;;;37.25;21.19
70684;BME280;58263;48.146;11.440;2023-07-08T12:28:02;95994.91;;;37.17;22.18
70684;BME280;58263;48.146;11.440;2023-07-08T12:30:29;95989.72;;;37.51;21.52
70684;BME280;58263;48.146;11.440;2023-07-08T12:32:55;95982.06;;;37.70;22.05
70684;BME280;58263;48.146;11.440;2023-07-08T12:35:27;95983.72;;;37.31;20.02
70684;BME280;58263;48.146;11.440;2023-07-08T12:37:56;95977.22;;;36.73;21.15
70684;BME280;58263;48.146;11.440;2023-07-08T12:40:23;95969.31;;;37.26;21.87
70684;BME280;58263;48.146;11.440;2023-07-08T12:42:50;95967.31;;;37.12;21.94
70684;BME280;58263;48.146;11.440;2023-07-08T12:45:19;95971.31;;;37.03;22.69
70684;BME280;58263;48.146;11.440;2023-07-08T12:47:45;95971.28;;;37.07;23.12
70684;BME280;58263;48.146;11.440;2023-07-08T12:50:12;95966.88;;;36.74;21.76
70684;BME280;58263;48.146;11.440;2023-07-08T12:52:38;95974.00;;;36.53;22.95
70684;BME280;58263;48.146;11.440;2023-07-08T12:55:04;95980.72;;;36.37;22.71
70684;BME280;58263;48.146;11.440;2023-07-08T12:57:30;95981.19;;;36.65;21.41
70684;BME280;58263;48.146;11.440;2023-07-08T12:59:56;95979.97;;;36.48;21.11
70684;BME280;58263;48.146;11.440;2023-07-08T13:02:22;95979.59;;;36.53;20.48
70684;BME280;58263;48.146;11.440;2023-07-08T13:04:56;95986.72;;;36.43;21.84
70684;BME280;58263;48.146;11.440;2023-07-08T13:07:39;95981.13;;;36.36;22.27
70684;BME280;58263;48.146;11.440;2023-07-08T13:10:07;95989.97;;;35.71;21.02
70684;BME280;58263;48.146;11.440;2023-07-08T13:12:40;95991.78;;;34.97;22.43
70684;BME280;58263;48.146;11.440;2023-07-08T13:15:12;95983.00;;;34.99;21.92
70684;BME280;58263;48.146;11.440;2023-07-08T13:17:40;95993.75;;;34.59;23.10
70684;BME280;58263;48.146;11.440;2023-07-08T13:20:12;95986.91;;;34.53;23.47
70684;BME280;58263;48.146;11.440;2023-07-08T13:22:38;95987.19;;;34.78;23.27
70684;BME280;58263;48.146;11.440;2023-07-08T13:25:14;95996.75;;;34.81;23.42
70684;BME280;58263;48.146;11.440;2023-07-08T13:27:41;95988.16;;;34.97;22.96
70684;BME280;58263;48.146;11.440;2023-07-08T13:30:28;95991.41;;;35.02;22.81